sensor_id;sensor_type;location;lat;lon;timestamp;P1;durP1;ratioP1;P2;durP2;ratioP2
76121;SDS011;64853;53.200;6.080;2022-11-15T00:00:35;3.60;;;2.80;;
76121;SDS011;64853;53.200;6.080;2022-11-15T00:03:01;3.63;;;2.58;;
76121;SDS011;64853;53.200;6.080;2022-11-15T00:05:29;4.20;;;3.00;;
76121;SDS011;64853;53.200;6.080;2022-11-15T00:07:56;3.35;;;2.35;;
76121;SDS011;64853;53.200;6.080;2022-11-15T00:10:23;4.53;;;2.85;;
76121;SDS011;64853;53.200;6.080;2022-11-15T00:12:49;3.97;;;2.75;;
76121;SDS011;64853;53.200;6.080;2022-11-15T00:15:15;3.40;;;2.58;;
76121;SDS011;64853;53.200;6.080;2022-11-15T00:17:42;3.80;;;2.78;;
76121;SDS011;64853;53.200;6.080;2022-11-15T00:20:09;3.72;;;2.92;;
76121;SDS011;64853;53.200;6.080;2022-11-15T00:22:37;4.55;;;2.78;;
76121;SDS011;64853;53.200;6.080;2022-11-15T00:25:04;4.10;;;2.80;;
76121;SDS011;64853;53.200;6.080;2022-11-15T00:27:31;2.97;;;2.47;;
76121;SDS011;64853;53.200;6.080;2022-11-15T00:29:58;4.00;;;2.45;;
76121;SDS011;64853;53.200;6.080;2022-11-15T00:32:24;3.70;;;2.50;;
76121;SDS011;64853;53.200;6.080;2022-11-15T00:34:50;3.42;;;2.72;;
76121;SDS011;64853;53.200;6.080;2022-11-15T00:37:17;4.15;;;2.35;;
76121;SDS011;64853;53.200;6.080;2022-11-15T00:39:45;3.97;;;3.00;;
76121;SDS011;64853;53.200;6.080;2022-11-15T00:42:11;4.05;;;2.70;;
76121;SDS011;64853;53.200;6.080;2022-11-15T00:44:37;2.78;;;2.40;;
76121;SDS011;64853;53.200;6.080;2022-11-15T00:47:04;2.67;;;2.35;;
76121;SDS011;64853;53.200;6.080;2022-11-15T00:49:30;4.47;;;2.90;;
76121;SDS011;64853;53.200;6.080;2022-11-15T00:51:57;4.03;;;2.67;;
76121;SDS011;64853;53.200;6.080;2022-11-15T00:54:23;3.63;;;2.53;;
76121;SDS011;64853;53.200;6.080;2022-11-15T00:56:51;3.95;;;3.00;;
76121;SDS011;64853;53.200;6.080;2022-11-15T00:59:17;2.90;;;2.60;;
76121;SDS011;64853;53.200;6.080;2022-11-15T01:01:44;2.83;;;2.50;;
76121;SDS011;64853;53.200;6.080;2022-11-15T01:04:10;3.88;;;2.80;;
76121;SDS011;64853;53.200;6.080;2022-11-15T01:06:36;3.40;;;2.53;;
76121;SDS011;64853;53.200;6.080;2022-11-15T01:09:03;4.50;;;3.05;;
76121;SDS011;64853;53.200;6.080;2022-11-15T01:11:29;3.70;;;2.80;;
76121;SDS011;64853;53.200;6.080;2022-11-15T01:13:57;3.70;;;2.67;;
76121;SDS011;64853;53.200;6.080;2022-11-15T01:16:23;3.10;;;2.42;;
76121;SDS011;64853;53.200;6.080;2022-11-15T01:18:50;3.40;;;2.63;;
76121;SDS011;64853;53.200;6.080;2022-11-15T01:21:17;3.20;;;2.40;;
76121;SDS011;64853;53.200;6.080;2022-11-15T01:23:45;3.45;;;2.70;;
76121;SDS011;64853;53.200;6.080;2022-11-15T01:26:12;3.63;;;2.63;;
76121;SDS011;64853;53.200;6.080;2022-11-15T01:28:40;4.10;;;3.03;;
76121;SDS011;64853;53.200;6.080;2022-11-15T01:31:11;2.92;;;2.50;;
76121;SDS011;64853;53.200;6.080;2022-11-15T01:33:39;4.00;;;2.95;;
76121;SDS011;64853;53.200;6.080;2022-11-15T01:36:06;3.40;;;2.60;;
76121;SDS011;64853;53.200;6.080;2022-11-15T01:38:34;3.70;;;2.95;;
76121;SDS011;64853;53.200;6.080;2022-11-15T01:41:00;3.20;;;2.53;;
76121;SDS011;64853;53.200;6.080;2022-11-15T01:43:27;3.55;;;3.10;;
76121;SDS011;64853;53.200;6.080;2022-11-15T01:45:58;3.53;;;2.60;;
76121;SDS011;64853;53.200;6.080;2022-11-15T01:50:57;4.20;;;2.72;;
76121;SDS011;64853;53.200;6.080;2022-11-15T01:53:25;3.95;;;2.83;;
76121;SDS011;64853;53.200;6.080;2022-11-15T01:55:52;2.47;;;2.28;;
76121;SDS011;64853;53.200;6.080;2022-11-15T01:58:19;3.20;;;2.30;;
76121;SDS011;64853;53.200;6.080;2022-11-15T02:00:46;4.00;;;2.85;;
76121;SDS011;64853;53.200;6.080;2022-11-15T02:03:14;3.75;;;3.13;;
76121;SDS011;64853;53.200;6.080;2022-11-15T02:05:42;4.18;;;3.08;;
76121;SDS011;64853;53.200;6.080;2022-11-15T02:08:10;3.50;;;2.75;;
76121;SDS011;64853;53.200;6.080;2022-11-15T02:10:44;3.35;;;2.67;;
76121;SDS011;64853;53.200;6.080;2022-11-15T02:13:11;4.88;;;2.60;;
76121;SDS011;64853;53.200;6.080;2022-11-15T02:15:40;3.63;;;3.00;;
76121;SDS011;64853;53.200;6.080;2022-11-15T02:18:17;4.18;;;2.80;;
76121;SDS011;64853;53.200;6.080;2022-11-15T02:20:53;3.45;;;2.53;;
76121;SDS011;64853;53.200;6.080;2022-11-15T02:23:47;3.03;;;2.70;;
76121;SDS011;64853;53.200;6.080;2022-11-15T02:26:50;3.95;;;3.08;;
76121;SDS011;64853;53.200;6.080;2022-11-15T02:29:35;3.88;;;2.78;;
76121;SDS011;64853;53.200;6.080;2022-11-15T02:32:20;4.00;;;2.85;;
76121;SDS011;64853;53.200;6.080;2022-11-15T02:34:54;3.30;;;2.67;;
76121;SDS011;64853;53.200;6.080;2022-11-15T02:37:28;3.75;;;2.70;;
76121;SDS011;64853;53.200;6.080;2022-11-15T02:40:01;3.90;;;2.78;;
76121;SDS011;64853;53.200;6.080;2022-11-15T02:42:38;5.13;;;2.83;;
76121;SDS011;64853;53.200;6.080;2022-11-15T02:45:26;3.35;;;2.60;;
76121;SDS011;64853;53.200;6.080;2022-11-15T02:47:57;3.25;;;2.47;;
76121;SDS011;64853;53.200;6.080;2022-11-15T02:50:28;3.03;;;2.10;;
76121;SDS011;64853;53.200;6.080;2022-11-15T02:52:57;3.67;;;2.63;;
76121;SDS011;64853;53.200;6.080;2022-11-15T02:55:25;4.47;;;3.15;;
76121;SDS011;64853;53.200;6.080;2022-11-15T02:57:55;3.25;;;2.42;;
76121;SDS011;64853;53.200;6.080;2022-11-15T03:00:34;3.03;;;2.55;;
76121;SDS011;64853;53.200;6.080;2022-11-15T03:03:13;3.28;;;2.47;;
76121;SDS011;64853;53.200;6.080;2022-11-15T03:05:51;2.83;;;2.38;;
76121;SDS011;64853;53.200;6.080;2022-11-15T03:08:25;3.15;;;2.17;;
76121;SDS011;64853;53.200;6.080;2022-11-15T03:10:59;3.80;;;2.78;;
76121;SDS011;64853;53.200;6.080;2022-11-15T03:13:33;4.10;;;2.90;;
76121;SDS011;64853;53.200;6.080;2022-11-15T03:16:06;3.47;;;2.28;;
76121;SDS011;64853;53.200;6.080;2022-11-15T03:18:38;3.20;;;2.17;;
76121;SDS011;64853;53.200;6.080;2022-11-15T03:21:07;3.92;;;2.55;;
76121;SDS011;64853;53.200;6.080;2022-11-15T03:23:36;3.80;;;2.50;;
76121;SDS011;64853;53.200;6.080;2022-11-15T03:26:05;3.88;;;2.38;;
76121;SDS011;64853;53.200;6.080;2022-11-15T03:28:35;3.75;;;3.13;;
76121;SDS011;64853;53.200;6.080;2022-11-15T03:31:04;3.85;;;2.97;;
76121;SDS011;64853;53.200;6.080;2022-11-15T03:33:53;3.35;;;2.55;;
76121;SDS011;64853;53.200;6.080;2022-11-15T03:36:23;3.20;;;2.35;;
76121;SDS011;64853;53.200;6.080;2022-11-15T03:38:52;4.30;;;2.97;;
76121;SDS011;64853;53.200;6.080;2022-11-15T03:41:22;3.10;;;2.42;;
76121;SDS011;64853;53.200;6.080;2022-11-15T03:43:55;4.60;;;2.53;;
76121;SDS011;64853;53.200;6.080;2022-11-15T03:49:00;3.85;;;2.40;;
76121;SDS011;64853;53.200;6.080;2022-11-15T03:51:31;3.22;;;2.10;;
76121;SDS011;64853;53.200;6.080;2022-11-15T03:53:58;4.60;;;2.78;;
76121;SDS011;64853;53.200;6.080;2022-11-15T03:56:25;3.63;;;2.60;;
76121;SDS011;64853;53.200;6.080;2022-11-15T03:58:51;4.57;;;2.33;;
76121;SDS011;64853;53.200;6.080;2022-11-15T04:01:18;4.10;;;2.50;;
76121;SDS011;64853;53.200;6.080;2022-11-15T04:03:44;3.00;;;2.33;;
76121;SDS011;64853;53.200;6.080;2022-11-15T04:06:12;4.65;;;2.50;;
76121;SDS011;64853;53.200;6.080;2022-11-15T04:08:38;3.55;;;1.98;;
76121;SDS011;64853;53.200;6.080;2022-11-15T04:11:05;4.15;;;2.70;;
76121;SDS011;64853;53.200;6.080;2022-11-15T04:13:31;3.97;;;2.42;;
76121;SDS011;64853;53.200;6.080;2022-11-15T04:15:58;3.90;;;2.75;;
76121;SDS011;64853;53.200;6.080;2022-11-15T04:18:24;4.30;;;2.45;;
76121;SDS011;64853;53.200;6.080;2022-11-15T04:20:50;4.47;;;2.28;;
76121;SDS011;64853;53.200;6.080;2022-11-15T04:23:36;3.58;;;2.53;;
76121;SDS011;64853;53.200;6.080;2022-11-15T04:26:25;4.05;;;2.85;;
76121;SDS011;64853;53.200;6.080;2022-11-15T04:28:52;4.63;;;2.67;;
76121;SDS011;64853;53.200;6.080;2022-11-15T04:31:36;4.03;;;2.58;;
76121;SDS011;64853;53.200;6.080;2022-11-15T04:34:03;4.78;;;2.53;;
76121;SDS011;64853;53.200;6.080;2022-11-15T04:36:29;5.80;;;2.95;;
76121;SDS011;64853;53.200;6.080;2022-11-15T04:39:15;4.93;;;2.80;;
76121;SDS011;64853;53.200;6.080;2022-11-15T04:41:41;4.07;;;2.72;;
76121;SDS011;64853;53.200;6.080;2022-11-15T04:44:07;3.88;;;2.60;;
76121;SDS011;64853;53.200;6.080;2022-11-15T04:46:34;4.75;;;2.75;;
76121;SDS011;64853;53.200;6.080;2022-11-15T04:49:01;4.18;;;2.30;;
76121;SDS011;64853;53.200;6.080;2022-11-15T04:51:27;3.42;;;2.30;;
76121;SDS011;64853;53.200;6.080;2022-11-15T04:53:54;4.57;;;2.38;;
76121;SDS011;64853;53.200;6.080;2022-11-15T04:56:21;3.38;;;3.00;;
76121;SDS011;64853;53.200;6.080;2022-11-15T04:58:48;4.15;;;2.80;;
76121;SDS011;64853;53.200;6.080;2022-11-15T05:01:15;3.60;;;2.70;;
76121;SDS011;64853;53.200;6.080;2022-11-15T05:03:42;3.95;;;2.63;;
76121;SDS011;64853;53.200;6.080;2022-11-15T05:06:26;4.50;;;2.30;;
76121;SDS011;64853;53.200;6.080;2022-11-15T05:08:53;5.22;;;2.10;;
76121;SDS011;64853;53.200;6.080;2022-11-15T05:11:20;3.80;;;1.73;;
76121;SDS011;64853;53.200;6.080;2022-11-15T05:13:48;3.30;;;2.33;;
76121;SDS011;64853;53.200;6.080;2022-11-15T05:16:14;3.05;;;2.08;;
76121;SDS011;64853;53.200;6.080;2022-11-15T05:18:41;4.88;;;2.78;;
76121;SDS011;64853;53.200;6.080;2022-11-15T05:21:08;3.90;;;2.30;;
76121;SDS011;64853;53.200;6.080;2022-11-15T05:23:36;4.22;;;2.40;;
76121;SDS011;64853;53.200;6.080;2022-11-15T05:26:03;3.47;;;2.10;;
76121;SDS011;64853;53.200;6.080;2022-11-15T05:28:33;2.53;;;1.75;;
76121;SDS011;64853;53.200;6.080;2022-11-15T05:31:00;3.58;;;2.47;;
76121;SDS011;64853;53.200;6.080;2022-11-15T05:33:26;5.38;;;2.13;;
76121;SDS011;64853;53.200;6.080;2022-11-15T05:35:54;3.45;;;2.10;;
76121;SDS011;64853;53.200;6.080;2022-11-15T05:38:26;3.33;;;2.20;;
76121;SDS011;64853;53.200;6.080;2022-11-15T05:40:54;2.88;;;2.05;;
76121;SDS011;64853;53.200;6.080;2022-11-15T05:43:20;2.05;;;1.85;;
76121;SDS011;64853;53.200;6.080;2022-11-15T05:45:48;4.28;;;2.20;;
76121;SDS011;64853;53.200;6.080;2022-11-15T05:48:15;2.58;;;1.77;;
76121;SDS011;64853;53.200;6.080;2022-11-15T05:50:42;3.20;;;1.80;;
76121;SDS011;64853;53.200;6.080;2022-11-15T05:53:11;3.90;;;2.17;;
76121;SDS011;64853;53.200;6.080;2022-11-15T05:55:40;4.60;;;1.90;;
76121;SDS011;64853;53.200;6.080;2022-11-15T05:58:07;2.85;;;2.13;;
76121;SDS011;64853;53.200;6.080;2022-11-15T06:00:34;2.95;;;1.90;;
76121;SDS011;64853;53.200;6.080;2022-11-15T06:03:01;3.15;;;1.83;;
76121;SDS011;64853;53.200;6.080;2022-11-15T06:05:28;2.53;;;2.00;;
76121;SDS011;64853;53.200;6.080;2022-11-15T06:07:56;2.90;;;1.90;;
76121;SDS011;64853;53.200;6.080;2022-11-15T06:10:23;3.10;;;2.08;;
76121;SDS011;64853;53.200;6.080;2022-11-15T06:12:55;3.08;;;1.77;;
76121;SDS011;64853;53.200;6.080;2022-11-15T06:15:22;3.42;;;2.05;;
76121;SDS011;64853;53.200;6.080;2022-11-15T06:17:49;3.33;;;2.10;;
76121;SDS011;64853;53.200;6.080;2022-11-15T06:20:17;3.40;;;1.92;;
76121;SDS011;64853;53.200;6.080;2022-11-15T06:22:43;2.50;;;1.92;;
76121;SDS011;64853;53.200;6.080;2022-11-15T06:25:10;3.10;;;2.00;;
76121;SDS011;64853;53.200;6.080;2022-11-15T06:27:36;3.08;;;2.20;;
76121;SDS011;64853;53.200;6.080;2022-11-15T06:30:03;3.08;;;1.77;;
76121;SDS011;64853;53.200;6.080;2022-11-15T06:32:30;3.63;;;2.08;;
76121;SDS011;64853;53.200;6.080;2022-11-15T06:34:56;4.28;;;2.30;;
76121;SDS011;64853;53.200;6.080;2022-11-15T06:37:24;4.55;;;2.17;;
76121;SDS011;64853;53.200;6.080;2022-11-15T06:39:50;2.60;;;1.98;;
76121;SDS011;64853;53.200;6.080;2022-11-15T06:42:17;2.92;;;1.95;;
76121;SDS011;64853;53.200;6.080;2022-11-15T06:44:43;2.58;;;1.98;;
76121;SDS011;64853;53.200;6.080;2022-11-15T06:47:09;4.15;;;2.40;;
76121;SDS011;64853;53.200;6.080;2022-11-15T06:49:36;4.28;;;2.83;;
76121;SDS011;64853;53.200;6.080;2022-11-15T06:52:02;3.22;;;2.05;;
76121;SDS011;64853;53.200;6.080;2022-11-15T06:54:30;3.10;;;1.90;;
76121;SDS011;64853;53.200;6.080;2022-11-15T06:56:56;3.95;;;1.95;;
76121;SDS011;64853;53.200;6.080;2022-11-15T06:59:23;2.90;;;2.30;;
76121;SDS011;64853;53.200;6.080;2022-11-15T07:01:49;2.78;;;1.92;;
76121;SDS011;64853;53.200;6.080;2022-11-15T07:04:16;4.07;;;2.60;;
76121;SDS011;64853;53.200;6.080;2022-11-15T07:06:42;3.15;;;2.17;;
76121;SDS011;64853;53.200;6.080;2022-11-15T07:09:12;2.92;;;2.33;;
76121;SDS011;64853;53.200;6.080;2022-11-15T07:11:40;2.97;;;2.13;;
76121;SDS011;64853;53.200;6.080;2022-11-15T07:14:06;3.65;;;2.10;;
76121;SDS011;64853;53.200;6.080;2022-11-15T07:16:33;3.13;;;2.30;;
76121;SDS011;64853;53.200;6.080;2022-11-15T07:18:59;2.70;;;1.95;;
76121;SDS011;64853;53.200;6.080;2022-11-15T07:21:26;5.15;;;2.72;;
76121;SDS011;64853;53.200;6.080;2022-11-15T07:23:52;4.28;;;2.10;;
76121;SDS011;64853;53.200;6.080;2022-11-15T07:26:19;3.85;;;2.10;;
76121;SDS011;64853;53.200;6.080;2022-11-15T07:28:46;5.97;;;2.35;;
76121;SDS011;64853;53.200;6.080;2022-11-15T07:31:13;3.63;;;2.25;;
76121;SDS011;64853;53.200;6.080;2022-11-15T07:33:39;3.75;;;2.08;;
76121;SDS011;64853;53.200;6.080;2022-11-15T07:36:06;3.08;;;2.08;;
76121;SDS011;64853;53.200;6.080;2022-11-15T07:38:34;5.10;;;2.70;;
76121;SDS011;64853;53.200;6.080;2022-11-15T07:41:02;3.97;;;2.15;;
76121;SDS011;64853;53.200;6.080;2022-11-15T07:43:30;4.78;;;2.30;;
76121;SDS011;64853;53.200;6.080;2022-11-15T07:46:03;3.28;;;2.00;;
76121;SDS011;64853;53.200;6.080;2022-11-15T07:48:32;2.75;;;2.10;;
76121;SDS011;64853;53.200;6.080;2022-11-15T07:50:59;3.70;;;2.20;;
76121;SDS011;64853;53.200;6.080;2022-11-15T07:53:25;3.10;;;1.90;;
76121;SDS011;64853;53.200;6.080;2022-11-15T07:55:51;3.17;;;2.10;;
76121;SDS011;64853;53.200;6.080;2022-11-15T07:58:18;2.65;;;1.98;;
76121;SDS011;64853;53.200;6.080;2022-11-15T08:00:45;3.25;;;2.13;;
76121;SDS011;64853;53.200;6.080;2022-11-15T08:03:13;3.03;;;2.15;;
76121;SDS011;64853;53.200;6.080;2022-11-15T08:05:41;3.28;;;1.90;;
76121;SDS011;64853;53.200;6.080;2022-11-15T08:08:09;3.92;;;2.10;;
76121;SDS011;64853;53.200;6.080;2022-11-15T08:10:37;2.63;;;1.98;;
76121;SDS011;64853;53.200;6.080;2022-11-15T08:13:04;2.90;;;1.80;;
76121;SDS011;64853;53.200;6.080;2022-11-15T08:15:31;2.60;;;1.88;;
76121;SDS011;64853;53.200;6.080;2022-11-15T08:18:00;2.90;;;2.25;;
76121;SDS011;64853;53.200;6.080;2022-11-15T08:20:30;3.78;;;2.10;;
76121;SDS011;64853;53.200;6.080;2022-11-15T08:22:57;4.50;;;2.30;;
76121;SDS011;64853;53.200;6.080;2022-11-15T08:25:24;2.85;;;1.95;;
76121;SDS011;64853;53.200;6.080;2022-11-15T08:27:52;3.83;;;1.98;;
76121;SDS011;64853;53.200;6.080;2022-11-15T08:30:19;3.67;;;2.17;;
76121;SDS011;64853;53.200;6.080;2022-11-15T08:32:45;3.83;;;2.38;;
76121;SDS011;64853;53.200;6.080;2022-11-15T08:35:12;3.38;;;2.30;;
76121;SDS011;64853;53.200;6.080;2022-11-15T08:37:40;3.20;;;2.05;;
76121;SDS011;64853;53.200;6.080;2022-11-15T08:40:07;4.00;;;2.00;;
76121;SDS011;64853;53.200;6.080;2022-11-15T08:42:34;6.07;;;1.90;;
76121;SDS011;64853;53.200;6.080;2022-11-15T08:45:00;3.63;;;2.28;;
76121;SDS011;64853;53.200;6.080;2022-11-15T08:47:27;3.70;;;2.05;;
76121;SDS011;64853;53.200;6.080;2022-11-15T08:49:53;2.83;;;2.22;;
76121;SDS011;64853;53.200;6.080;2022-11-15T08:52:20;3.35;;;2.22;;
76121;SDS011;64853;53.200;6.080;2022-11-15T08:54:48;3.05;;;2.33;;
76121;SDS011;64853;53.200;6.080;2022-11-15T08:57:14;3.85;;;2.30;;
76121;SDS011;64853;53.200;6.080;2022-11-15T08:59:41;3.90;;;2.20;;
76121;SDS011;64853;53.200;6.080;2022-11-15T09:02:10;4.57;;;2.10;;
76121;SDS011;64853;53.200;6.080;2022-11-15T09:04:39;2.13;;;1.80;;
76121;SDS011;64853;53.200;6.080;2022-11-15T09:07:05;2.00;;;1.70;;
76121;SDS011;64853;53.200;6.080;2022-11-15T09:09:32;5.22;;;2.60;;
76121;SDS011;64853;53.200;6.080;2022-11-15T09:12:00;4.35;;;1.90;;
76121;SDS011;64853;53.200;6.080;2022-11-15T09:14:26;2.85;;;1.73;;
76121;SDS011;64853;53.200;6.080;2022-11-15T09:16:53;5.75;;;2.58;;
76121;SDS011;64853;53.200;6.080;2022-11-15T09:19:19;3.42;;;1.90;;
76121;SDS011;64853;53.200;6.080;2022-11-15T09:21:45;2.63;;;2.00;;
76121;SDS011;64853;53.200;6.080;2022-11-15T09:24:12;3.25;;;2.25;;
76121;SDS011;64853;53.200;6.080;2022-11-15T09:26:38;4.20;;;2.50;;
76121;SDS011;64853;53.200;6.080;2022-11-15T09:29:06;4.28;;;2.08;;
76121;SDS011;64853;53.200;6.080;2022-11-15T09:31:33;2.97;;;2.45;;
76121;SDS011;64853;53.200;6.080;2022-11-15T09:33:59;3.97;;;2.20;;
76121;SDS011;64853;53.200;6.080;2022-11-15T09:36:26;3.53;;;2.28;;
76121;SDS011;64853;53.200;6.080;2022-11-15T09:38:52;4.30;;;2.15;;
76121;SDS011;64853;53.200;6.080;2022-11-15T09:41:38;3.10;;;2.30;;
76121;SDS011;64853;53.200;6.080;2022-11-15T09:44:22;4.75;;;2.40;;
76121;SDS011;64853;53.200;6.080;2022-11-15T09:47:02;5.43;;;2.72;;
76121;SDS011;64853;53.200;6.080;2022-11-15T09:49:36;4.88;;;2.85;;
76121;SDS011;64853;53.200;6.080;2022-11-15T09:52:02;6.68;;;4.30;;
76121;SDS011;64853;53.200;6.080;2022-11-15T09:54:30;4.57;;;2.90;;
76121;SDS011;64853;53.200;6.080;2022-11-15T09:57:02;6.97;;;2.50;;
76121;SDS011;64853;53.200;6.080;2022-11-15T09:59:48;4.40;;;2.90;;
76121;SDS011;64853;53.200;6.080;2022-11-15T10:02:26;3.08;;;2.70;;
76121;SDS011;64853;53.200;6.080;2022-11-15T10:05:02;5.40;;;2.70;;
76121;SDS011;64853;53.200;6.080;2022-11-15T10:07:31;2.65;;;2.20;;
76121;SDS011;64853;53.200;6.080;2022-11-15T10:10:08;4.57;;;2.05;;
76121;SDS011;64853;53.200;6.080;2022-11-15T10:12:40;3.75;;;1.92;;
76121;SDS011;64853;53.200;6.080;2022-11-15T10:15:14;4.10;;;2.00;;
76121;SDS011;64853;53.200;6.080;2022-11-15T10:20:50;2.85;;;2.15;;
76121;SDS011;64853;53.200;6.080;2022-11-15T10:23:22;2.55;;;1.75;;
76121;SDS011;64853;53.200;6.080;2022-11-15T10:25:50;2.95;;;1.80;;
76121;SDS011;64853;53.200;6.080;2022-11-15T10:30:50;3.50;;;1.95;;
76121;SDS011;64853;53.200;6.080;2022-11-15T10:33:20;2.08;;;1.60;;
76121;SDS011;64853;53.200;6.080;2022-11-15T10:38:53;2.08;;;1.50;;
76121;SDS011;64853;53.200;6.080;2022-11-15T10:41:22;2.00;;;1.30;;
76121;SDS011;64853;53.200;6.080;2022-11-15T10:44:03;2.60;;;1.80;;
76121;SDS011;64853;53.200;6.080;2022-11-15T10:46:38;3.50;;;1.85;;
76121;SDS011;64853;53.200;6.080;2022-11-15T10:49:12;2.58;;;2.00;;
76121;SDS011;64853;53.200;6.080;2022-11-15T10:51:40;2.80;;;1.60;;
76121;SDS011;64853;53.200;6.080;2022-11-15T10:54:09;2.45;;;1.67;;
76121;SDS011;64853;53.200;6.080;2022-11-15T10:56:38;3.38;;;1.92;;
76121;SDS011;64853;53.200;6.080;2022-11-15T10:59:07;4.45;;;1.88;;
76121;SDS011;64853;53.200;6.080;2022-11-15T11:01:46;2.47;;;1.77;;
76121;SDS011;64853;53.200;6.080;2022-11-15T11:04:14;3.25;;;1.60;;
76121;SDS011;64853;53.200;6.080;2022-11-15T11:06:46;2.38;;;1.65;;
76121;SDS011;64853;53.200;6.080;2022-11-15T11:09:22;2.17;;;1.58;;
76121;SDS011;64853;53.200;6.080;2022-11-15T11:11:53;1.77;;;1.50;;
76121;SDS011;64853;53.200;6.080;2022-11-15T11:14:20;2.88;;;1.65;;
76121;SDS011;64853;53.200;6.080;2022-11-15T11:16:50;4.72;;;1.75;;
76121;SDS011;64853;53.200;6.080;2022-11-15T11:19:30;2.47;;;1.50;;
76121;SDS011;64853;53.200;6.080;2022-11-15T11:22:05;2.90;;;1.65;;
76121;SDS011;64853;53.200;6.080;2022-11-15T11:24:41;1.60;;;1.48;;
76121;SDS011;64853;53.200;6.080;2022-11-15T11:27:13;2.10;;;1.08;;
76121;SDS011;64853;53.200;6.080;2022-11-15T11:29:51;2.55;;;1.33;;
76121;SDS011;64853;53.200;6.080;2022-11-15T11:32:34;1.88;;;1.45;;
76121;SDS011;64853;53.200;6.080;2022-11-15T11:35:30;1.70;;;1.33;;
76121;SDS011;64853;53.200;6.080;2022-11-15T11:38:06;2.50;;;1.73;;
76121;SDS011;64853;53.200;6.080;2022-11-15T11:40:51;1.98;;;1.45;;
76121;SDS011;64853;53.200;6.080;2022-11-15T11:43:27;1.52;;;1.40;;
76121;SDS011;64853;53.200;6.080;2022-11-15T11:46:09;2.33;;;1.38;;
76121;SDS011;64853;53.200;6.080;2022-11-15T11:48:51;2.20;;;1.50;;
76121;SDS011;64853;53.200;6.080;2022-11-15T11:51:23;2.33;;;1.25;;
76121;SDS011;64853;53.200;6.080;2022-11-15T11:53:54;1.80;;;1.40;;
76121;SDS011;64853;53.200;6.080;2022-11-15T11:56:26;1.73;;;1.23;;
76121;SDS011;64853;53.200;6.080;2022-11-15T11:58:56;1.58;;;1.20;;
76121;SDS011;64853;53.200;6.080;2022-11-15T12:01:29;1.40;;;1.13;;
76121;SDS011;64853;53.200;6.080;2022-11-15T12:04:01;3.65;;;1.50;;
76121;SDS011;64853;53.200;6.080;2022-11-15T12:06:35;2.42;;;1.85;;
76121;SDS011;64853;53.200;6.080;2022-11-15T12:09:07;2.92;;;1.75;;
76121;SDS011;64853;53.200;6.080;2022-11-15T12:11:43;3.08;;;1.48;;
76121;SDS011;64853;53.200;6.080;2022-11-15T12:14:21;3.17;;;1.80;;
76121;SDS011;64853;53.200;6.080;2022-11-15T12:16:53;3.00;;;1.73;;
76121;SDS011;64853;53.200;6.080;2022-11-15T12:19:21;3.80;;;1.77;;
76121;SDS011;64853;53.200;6.080;2022-11-15T12:21:48;4.15;;;1.88;;
76121;SDS011;64853;53.200;6.080;2022-11-15T12:24:20;2.45;;;1.70;;
76121;SDS011;64853;53.200;6.080;2022-11-15T12:26:52;2.60;;;1.88;;
76121;SDS011;64853;53.200;6.080;2022-11-15T12:29:24;3.92;;;2.17;;
76121;SDS011;64853;53.200;6.080;2022-11-15T12:31:54;6.00;;;2.72;;
76121;SDS011;64853;53.200;6.080;2022-11-15T12:34:42;3.22;;;1.95;;
76121;SDS011;64853;53.200;6.080;2022-11-15T12:40:25;4.28;;;1.38;;
76121;SDS011;64853;53.200;6.080;2022-11-15T12:43:00;4.05;;;1.30;;
76121;SDS011;64853;53.200;6.080;2022-11-15T12:45:42;2.97;;;1.40;;
76121;SDS011;64853;53.200;6.080;2022-11-15T12:51:15;2.63;;;1.70;;
76121;SDS011;64853;53.200;6.080;2022-11-15T12:53:42;1.65;;;1.05;;
76121;SDS011;64853;53.200;6.080;2022-11-15T12:56:17;1.55;;;1.25;;
76121;SDS011;64853;53.200;6.080;2022-11-15T12:58:47;1.67;;;1.48;;
76121;SDS011;64853;53.200;6.080;2022-11-15T13:04:24;5.30;;;1.50;;
76121;SDS011;64853;53.200;6.080;2022-11-15T13:06:54;3.42;;;1.35;;
76121;SDS011;64853;53.200;6.080;2022-11-15T13:15:31;2.03;;;0.90;;
76121;SDS011;64853;53.200;6.080;2022-11-15T13:18:23;7.40;;;1.40;;
76121;SDS011;64853;53.200;6.080;2022-11-15T13:21:00;3.10;;;0.80;;
76121;SDS011;64853;53.200;6.080;2022-11-15T13:23:52;1.85;;;0.88;;
76121;SDS011;64853;53.200;6.080;2022-11-15T13:26:20;2.45;;;1.20;;
76121;SDS011;64853;53.200;6.080;2022-11-15T13:28:47;2.33;;;0.82;;
76121;SDS011;64853;53.200;6.080;2022-11-15T13:31:24;1.92;;;1.05;;
76121;SDS011;64853;53.200;6.080;2022-11-15T13:33:55;1.20;;;1.00;;
76121;SDS011;64853;53.200;6.080;2022-11-15T13:36:24;1.30;;;1.00;;
76121;SDS011;64853;53.200;6.080;2022-11-15T13:38:58;1.10;;;0.80;;
76121;SDS011;64853;53.200;6.080;2022-11-15T13:41:27;1.63;;;0.90;;
76121;SDS011;64853;53.200;6.080;2022-11-15T13:43:55;1.02;;;0.82;;
76121;SDS011;64853;53.200;6.080;2022-11-15T13:46:23;2.10;;;0.80;;
76121;SDS011;64853;53.200;6.080;2022-11-15T13:48:51;2.15;;;0.80;;
76121;SDS011;64853;53.200;6.080;2022-11-15T13:51:19;2.05;;;0.75;;
76121;SDS011;64853;53.200;6.080;2022-11-15T13:53:51;0.73;;;0.63;;
76121;SDS011;64853;53.200;6.080;2022-11-15T13:56:23;1.10;;;0.80;;
76121;SDS011;64853;53.200;6.080;2022-11-15T13:58:51;1.58;;;0.60;;
76121;SDS011;64853;53.200;6.080;2022-11-15T14:01:19;2.70;;;0.80;;
76121;SDS011;64853;53.200;6.080;2022-11-15T14:03:48;1.40;;;0.90;;
76121;SDS011;64853;53.200;6.080;2022-11-15T14:06:18;1.10;;;0.80;;
76121;SDS011;64853;53.200;6.080;2022-11-15T14:09:00;2.30;;;1.00;;
76121;SDS011;64853;53.200;6.080;2022-11-15T14:11:50;2.60;;;0.70;;
76121;SDS011;64853;53.200;6.080;2022-11-15T14:14:19;1.13;;;0.63;;
76121;SDS011;64853;53.200;6.080;2022-11-15T14:16:48;1.10;;;0.60;;
76121;SDS011;64853;53.200;6.080;2022-11-15T14:22:07;1.80;;;0.55;;
76121;SDS011;64853;53.200;6.080;2022-11-15T14:24:35;1.70;;;0.60;;
76121;SDS011;64853;53.200;6.080;2022-11-15T14:27:17;0.50;;;0.50;;
76121;SDS011;64853;53.200;6.080;2022-11-15T14:29:48;2.38;;;0.50;;
76121;SDS011;64853;53.200;6.080;2022-11-15T14:32:16;0.73;;;0.50;;
76121;SDS011;64853;53.200;6.080;2022-11-15T14:34:44;0.77;;;0.50;;
76121;SDS011;64853;53.200;6.080;2022-11-15T14:37:16;0.88;;;0.60;;
76121;SDS011;64853;53.200;6.080;2022-11-15T14:39:45;0.60;;;0.60;;
76121;SDS011;64853;53.200;6.080;2022-11-15T14:42:12;1.00;;;0.65;;
76121;SDS011;64853;53.200;6.080;2022-11-15T14:44:40;0.85;;;0.55;;
76121;SDS011;64853;53.200;6.080;2022-11-15T14:47:06;1.60;;;0.60;;
76121;SDS011;64853;53.200;6.080;2022-11-15T14:49:32;0.80;;;0.50;;
76121;SDS011;64853;53.200;6.080;2022-11-15T14:51:59;0.57;;;0.50;;
76121;SDS011;64853;53.200;6.080;2022-11-15T14:54:25;1.30;;;0.50;;
76121;SDS011;64853;53.200;6.080;2022-11-15T14:56:52;0.88;;;0.55;;
76121;SDS011;64853;53.200;6.080;2022-11-15T14:59:18;0.88;;;0.45;;
76121;SDS011;64853;53.200;6.080;2022-11-15T15:01:46;2.15;;;0.57;;
76121;SDS011;64853;53.200;6.080;2022-11-15T15:04:12;1.25;;;0.77;;
76121;SDS011;64853;53.200;6.080;2022-11-15T15:06:39;0.45;;;0.45;;
76121;SDS011;64853;53.200;6.080;2022-11-15T15:09:05;0.73;;;0.43;;
76121;SDS011;64853;53.200;6.080;2022-11-15T15:11:32;0.30;;;0.30;;
76121;SDS011;64853;53.200;6.080;2022-11-15T15:13:58;0.47;;;0.40;;
76121;SDS011;64853;53.200;6.080;2022-11-15T15:16:26;0.93;;;0.70;;
76121;SDS011;64853;53.200;6.080;2022-11-15T15:18:54;0.90;;;0.63;;
76121;SDS011;64853;53.200;6.080;2022-11-15T15:21:21;0.60;;;0.57;;
76121;SDS011;64853;53.200;6.080;2022-11-15T15:23:49;2.33;;;0.40;;
76121;SDS011;64853;53.200;6.080;2022-11-15T15:26:15;1.15;;;0.70;;
76121;SDS011;64853;53.200;6.080;2022-11-15T15:28:42;0.30;;;0.30;;
76121;SDS011;64853;53.200;6.080;2022-11-15T15:31:09;0.60;;;0.32;;
76121;SDS011;64853;53.200;6.080;2022-11-15T15:33:36;0.60;;;0.30;;
76121;SDS011;64853;53.200;6.080;2022-11-15T15:36:04;0.40;;;0.40;;